Time;durP1;ratioP1;P1;durP2;ratioP2;P2;SDS_P1;SDS_P2;PMS_P1;PMS_P2;Temp;Humidity;BMP_temperature;BMP_pressure;BME280_temperature;BME280_humidity;BME280_pressure;Samples;Min_cycle;Max_cycle;Signal;HPM_P1;HPM_P2
2023/11/02 00:02:36;;;;;;;1.33;0.60;;;;;;;7.79;57.34;99251.28;4997810;28;20570;-69
2023/11/02 00:05:04;;;;;;;1.88;0.17;;;;;;;7.71;57.23;99249.13;4999330;28;20396;-71
2023/11/02 00:07:30;;;;;;;3.95;0.30;;;;;;;7.75;57.23;99249.75;4993545;28;20333;-69
2023/11/02 00:09:58;;;;;;;3.22;0.30;;;;;;;7.40;57.84;99239.47;4999787;28;20489;-68
2023/11/02 00:12:29;;;;;;;7.97;0.50;;;;;;;7.75;56.82;99239.38;4993332;28;20041;-72
2023/11/02 00:14:58;;;;;;;3.22;0.15;;;;;;;7.80;56.74;99228.72;4998562;28;20774;-70
2023/11/02 00:17:36;;;;;;;6.38;1.55;;;;;;;7.59;57.12;99218.56;4998205;28;20119;-71
2023/11/02 00:20:07;;;;;;;1.23;0.30;;;;;;;7.63;57.07;99217.47;4998559;28;20608;-71
2023/11/02 00:22:39;;;;;;;6.63;0.40;;;;;;;7.66;57.01;99219.06;4993569;28;20412;-70
2023/11/02 00:25:05;;;;;;;4.18;0.32;;;;;;;7.54;57.02;99215.34;4999533;28;20049;-71
2023/11/02 00:27:36;;;;;;;1.40;0.20;;;;;;;7.60;57.03;99215.06;4997311;28;20049;-72
2023/11/02 00:30:04;;;;;;;3.47;0.40;;;;;;;7.60;57.08;99204.66;5003874;28;20034;-71
2023/11/02 00:32:32;;;;;;;1.83;0.25;;;;;;;7.67;56.61;99200.78;4999565;28;20037;-70
2023/11/02 00:34:57;;;;;;;4.35;0.15;;;;;;;7.51;57.01;99192.94;5005859;28;20037;-69
2023/11/02 00:37:23;;;;;;;1.73;0.17;;;;;;;7.68;56.60;99197.25;5009256;28;20111;-71
2023/11/02 00:39:48;;;;;;;1.00;0.32;;;;;;;7.30;57.95;99199.28;4998953;28;20374;-73
2023/11/02 00:42:15;;;;;;;2.75;0.15;;;;;;;7.47;56.83;99199.22;4996498;28;20126;-69
2023/11/02 00:44:45;;;;;;;3.38;0.30;;;;;;;7.44;57.31;99206.34;4982905;28;20481;-69
2023/11/02 00:47:14;;;;;;;2.65;0.20;;;;;;;7.47;57.01;99203.59;5001682;28;20147;-70
2023/11/02 00:49:40;;;;;;;2.30;0.35;;;;;;;7.48;57.09;99206.09;4990227;28;20060;-70
2023/11/02 00:52:06;;;;;;;1.33;0.10;;;;;;;7.57;56.70;99202.19;5000790;28;20045;-69
2023/11/02 00:54:44;;;;;;;3.95;0.28;;;;;;;7.57;56.57;99196.16;4999529;28;20025;-70
2023/11/02 00:57:11;;;;;;;1.50;0.40;;;;;;;7.57;56.02;99191.78;5002300;28;20053;-71
2023/11/02 00:59:38;;;;;;;2.63;0.15;;;;;;;7.46;56.82;99192.34;5001953;28;20212;-68
2023/11/02 01:02:05;;;;;;;5.65;0.10;;;;;;;7.27;57.55;99200.28;5001489;28;20302;-69
2023/11/02 01:04:54;;;;;;;2.80;0.40;;;;;;;7.40;57.12;99197.88;4989206;28;20172;-69
2023/11/02 01:07:19;;;;;;;3.17;0.65;;;;;;;7.33;57.30;99189.56;5002042;28;20100;-69
2023/11/02 01:09:49;;;;;;;6.18;0.40;;;;;;;7.47;56.93;99194.03;5004010;28;20033;-71
2023/11/02 01:12:35;;;;;;;6.43;0.73;;;;;;;7.47;56.76;99185.41;4991782;28;20635;-71
2023/11/02 01:15:03;;;;;;;3.40;0.30;;;;;;;7.31;57.40;99186.22;5003347;28;20038;-72
2023/11/02 01:17:30;;;;;;;2.42;0.20;;;;;;;7.44;56.92;99182.94;5002878;28;20057;-71
2023/11/02 01:20:00;;;;;;;2.28;0.20;;;;;;;7.29;57.51;99195.84;5006880;28;20167;-71
2023/11/02 01:22:29;;;;;;;4.47;0.40;;;;;;;7.09;57.47;99183.06;5001780;28;20041;-71
2023/11/02 01:25:03;;;;;;;4.40;0.20;;;;;;;7.28;57.23;99178.56;5007138;28;20030;-72
2023/11/02 01:27:29;;;;;;;0.98;0.15;;;;;;;7.41;56.48;99172.72;5000232;28;20034;-70
2023/11/02 01:29:58;;;;;;;0.68;0.10;;;;;;;7.29;56.78;99169.88;5003993;28;20688;-73
2023/11/02 01:32:26;;;;;;;3.95;0.75;;;;;;;7.22;57.10;99152.94;4999560;28;20197;-72
2023/11/02 01:34:52;;;;;;;3.80;0.20;;;;;;;7.21;57.15;99148.63;5005007;28;20081;-72
2023/11/02 01:37:21;;;;;;;3.08;0.35;;;;;;;7.15;57.16;99158.53;5001146;28;20045;-72
2023/11/02 01:40:01;;;;;;;2.55;0.20;;;;;;;7.11;57.48;99156.09;4988075;28;20055;-73
2023/11/02 01:42:32;;;;;;;3.72;0.30;;;;;;;7.05;57.58;99151.22;5001339;28;20562;-71
2023/11/02 01:45:12;;;;;;;1.10;0.30;;;;;;;7.20;57.11;99149.56;5014973;28;20030;-68
2023/11/02 01:47:46;;;;;;;1.73;0.25;;;;;;;7.12;57.21;99141.34;4998836;28;20120;-72
2023/11/02 01:50:47;;;;;;;1.70;0.20;;;;;;;7.05;57.47;99129.59;5008171;28;20040;-71
2023/11/02 01:53:27;;;;;;;11.05;1.02;;;;;;;7.05;57.67;99116.63;4998301;28;20380;-71
2023/11/02 01:56:07;;;;;;;1.48;0.20;;;;;;;7.03;57.74;99108.06;4996731;28;20029;-69
2023/11/02 01:58:41;;;;;;;5.47;0.85;;;;;;;6.92;58.34;99108.63;4987600;28;20034;-72
2023/11/02 02:01:13;;;;;;;1.25;0.45;;;;;;;6.84;58.23;99109.03;5006677;28;20094;-72
2023/11/02 02:04:06;;;;;;;3.90;0.40;;;;;;;6.95;58.21;99100.66;5001736;28;20042;-70
2023/11/02 02:07:03;;;;;;;2.30;0.30;;;;;;;7.07;57.32;99088.78;5005107;28;20030;-72
2023/11/02 02:10:05;;;;;;;0.73;0.25;;;;;;;6.98;57.66;99092.72;4981422;28;20694;-72
2023/11/02 02:12:33;;;;;;;0.82;0.25;;;;;;;6.91;57.98;99092.22;5005269;28;20053;-72
2023/11/02 02:15:10;;;;;;;3.58;0.57;;;;;;;6.87;58.02;99079.47;4998465;28;20124;-72
2023/11/02 02:17:57;;;;;;;2.08;0.22;;;;;;;6.87;57.79;99080.31;4996429;28;20048;-72
2023/11/02 02:20:30;;;;;;;2.75;0.30;;;;;;;6.66;59.09;99065.84;4992493;28;20137;-74
2023/11/02 02:23:08;;;;;;;1.65;0.30;;;;;;;6.56;59.34;99065.50;4999982;28;20050;-73
2023/11/02 02:25:58;;;;;;;1.30;0.25;;;;;;;6.48;59.47;99055.53;5004643;28;20032;-73
2023/11/02 02:28:29;;;;;;;4.40;0.50;;;;;;;6.88;57.91;99053.41;5007591;28;20197;-72
2023/11/02 02:31:01;;;;;;;2.10;0.20;;;;;;;6.91;57.46;99055.84;4993357;28;20415;-72
2023/11/02 02:33:48;;;;;;;0.98;0.20;;;;;;;6.82;58.06;99053.75;5002179;28;20559;-73
2023/11/02 02:36:23;;;;;;;1.63;0.38;;;;;;;6.72;58.35;99054.31;4998947;28;20055;-72
2023/11/02 02:39:00;;;;;;;5.88;0.65;;;;;;;6.72;58.55;99059.50;4993636;28;20045;-73
2023/11/02 02:41:31;;;;;;;3.55;0.30;;;;;;;6.54;59.13;99048.34;4999271;28;20112;-72
2023/11/02 02:43:59;;;;;;;0.85;0.20;;;;;;;6.78;57.91;99044.44;4986953;28;20037;-74
2023/11/02 02:46:28;;;;;;;1.65;0.32;;;;;;;6.80;58.12;99037.41;4998273;28;20408;-72
2023/11/02 02:48:53;;;;;;;2.85;0.43;;;;;;;6.54;58.96;99032.75;5002720;28;21664;-69
2023/11/02 02:51:21;;;;;;;2.38;0.20;;;;;;;6.69;58.52;99034.53;4999854;28;20485;-75
2023/11/02 02:53:50;;;;;;;1.75;0.30;;;;;;;6.86;57.78;99020.66;4985265;28;20038;-75
2023/11/02 02:56:25;;;;;;;4.85;0.52;;;;;;;6.77;58.15;99014.19;4996025;28;20053;-74
2023/11/02 02:58:58;;;;;;;1.75;0.43;;;;;;;6.57;58.79;99010.06;5004558;28;20586;-75
2023/11/02 03:01:28;;;;;;;3.05;0.40;;;;;;;6.63;58.64;98990.75;5000152;28;20092;-74
2023/11/02 03:03:56;;;;;;;1.95;0.25;;;;;;;6.54;58.77;98986.88;4992259;28;20286;-75
2023/11/02 03:06:25;;;;;;;4.40;0.70;;;;;;;6.61;58.19;98967.44;5000375;28;20057;-75
2023/11/02 03:08:51;;;;;;;2.47;0.28;;;;;;;6.39;58.80;98967.75;4999517;28;20033;-76
2023/11/02 03:11:22;;;;;;;3.00;0.22;;;;;;;6.78;57.94;98971.72;4983637;28;20072;-75
2023/11/02 03:13:52;;;;;;;3.47;0.20;;;;;;;6.69;57.96;98956.66;4990978;28;20111;-75
2023/11/02 03:16:20;;;;;;;0.55;0.15;;;;;;;6.50;58.48;98947.25;4991852;28;20135;-76
2023/11/02 03:18:45;;;;;;;0.85;0.10;;;;;;;6.56;58.41;98925.34;4981616;28;20033;-75
2023/11/02 03:21:11;;;;;;;1.92;0.50;;;;;;;6.56;58.04;98919.31;4997194;28;20373;-74
2023/11/02 03:23:49;;;;;;;1.02;0.10;;;;;;;6.55;58.36;98907.25;4997839;28;20416;-76
2023/11/02 03:26:26;;;;;;;4.65;0.10;;;;;;;6.29;58.68;98904.31;4989605;28;20037;-74
2023/11/02 03:29:06;;;;;;;5.18;0.30;;;;;;;6.42;58.42;98897.53;4995135;28;20057;-76
2023/11/02 03:31:38;;;;;;;0.73;0.13;;;;;;;6.35;58.28;98896.19;4998245;28;20090;-75
2023/11/02 03:34:11;;;;;;;4.03;0.20;;;;;;;6.27;58.65;98883.59;4999588;28;20045;-74
2023/11/02 03:36:52;;;;;;;3.88;0.80;;;;;;;6.22;58.75;98874.41;5004293;28;20029;-75
2023/11/02 03:39:36;;;;;;;0.43;0.20;;;;;;;6.48;57.89;98860.03;4996798;28;20679;-73
2023/11/02 03:42:24;;;;;;;2.60;0.20;;;;;;;6.44;58.00;98853.31;4985216;28;20128;-73
2023/11/02 03:45:33;;;;;;;1.85;0.10;;;;;;;6.40;58.34;98841.47;4988292;28;20029;-73
2023/11/02 03:48:11;;;;;;;0.38;0.17;;;;;;;6.33;58.32;98825.41;4993887;28;21326;-73
2023/11/02 03:50:42;;;;;;;0.50;0.30;;;;;;;6.26;58.52;98804.09;5007544;28;20030;-72
2023/11/02 03:53:19;;;;;;;0.60;0.10;;;;;;;6.32;58.17;98797.75;4996689;28;20045;-72
2023/11/02 03:56:16;;;;;;;1.10;0.22;;;;;;;6.25;58.39;98792.03;5004580;28;20038;-73
2023/11/02 03:59:11;;;;;;;1.90;0.20;;;;;;;6.07;58.65;98774.91;4994123;28;20116;-73
2023/11/02 04:01:59;;;;;;;1.55;0.17;;;;;;;5.97;59.50;98774.56;4983560;28;20064;-72
2023/11/02 04:04:46;;;;;;;2.30;0.20;;;;;;;6.00;59.13;98769.22;5001979;28;20479;-73
2023/11/02 04:07:33;;;;;;;2.40;0.22;;;;;;;6.15;58.74;98757.16;5001393;28;20053;-70
2023/11/02 04:10:07;;;;;;;0.75;0.20;;;;;;;6.07;59.03;98767.13;4998490;28;20923;-73
2023/11/02 04:12:46;;;;;;;5.75;0.30;;;;;;;5.96;59.54;98765.09;5004623;28;20037;-70
2023/11/02 04:15:15;;;;;;;1.83;0.30;;;;;;;6.03;59.17;98763.84;5001787;28;20030;-70
2023/11/02 04:17:41;;;;;;;5.22;0.40;;;;;;;6.18;58.75;98753.56;4998556;28;20113;-70
2023/11/02 04:20:07;;;;;;;2.70;0.60;;;;;;;6.25;58.08;98744.50;5002297;28;20040;-70
2023/11/02 04:22:33;;;;;;;1.23;0.45;;;;;;;6.18;58.78;98738.00;5000989;28;20125;-71
2023/11/02 04:24:59;;;;;;;1.02;0.10;;;;;;;6.14;58.49;98726.94;4997883;28;20147;-67
2023/11/02 04:27:27;;;;;;;3.70;0.25;;;;;;;6.38;57.86;98716.97;5008963;28;20384;-68
2023/11/02 04:29:53;;;;;;;2.67;0.40;;;;;;;6.29;58.01;98709.72;5000386;28;20029;-66
2023/11/02 04:32:18;;;;;;;1.27;0.17;;;;;;;6.25;58.31;98698.66;4976017;28;20516;-68
2023/11/02 04:34:44;;;;;;;1.65;0.17;;;;;;;6.39;57.92;98678.91;5004971;28;20036;-71
2023/11/02 04:37:16;;;;;;;0.90;0.20;;;;;;;6.26;58.12;98665.75;5002320;28;20152;-71
2023/11/02 04:39:43;;;;;;;2.30;0.15;;;;;;;6.22;58.34;98652.13;5005414;28;20034;-71
2023/11/02 04:42:09;;;;;;;3.13;0.20;;;;;;;6.40;57.90;98645.06;5000123;28;20136;-75
2023/11/02 04:44:35;;;;;;;2.65;0.88;;;;;;;6.29;58.05;98640.50;4997971;28;20063;-72
2023/11/02 04:47:01;;;;;;;0.60;0.20;;;;;;;6.31;58.25;98629.19;4998283;28;20030;-72
2023/11/02 04:49:26;;;;;;;4.57;0.10;;;;;;;6.50;57.57;98624.59;5001576;28;20033;-72
2023/11/02 04:52:01;;;;;;;3.03;0.20;;;;;;;6.47;57.63;98615.25;4987642;28;20079;-72
2023/11/02 04:54:28;;;;;;;3.33;0.20;;;;;;;6.30;57.92;98592.03;4999001;28;20116;-71
2023/11/02 04:56:56;;;;;;;5.13;0.30;;;;;;;6.26;57.91;98577.53;5000181;28;20036;-73
2023/11/02 04:59:22;;;;;;;0.30;0.20;;;;;;;6.25;58.07;98573.28;5000352;28;20473;-72
2023/11/02 05:01:50;;;;;;;2.53;0.30;;;;;;;6.22;58.15;98552.72;4993852;28;20196;-73
2023/11/02 05:04:16;;;;;;;1.23;0.20;;;;;;;6.14;58.12;98550.56;4992253;28;20044;-77
2023/11/02 05:06:42;;;;;;;2.72;0.15;;;;;;;5.91;58.93;98538.97;4989493;28;20034;-73
2023/11/02 05:09:08;;;;;;;1.15;0.20;;;;;;;5.88;59.03;98552.06;4996848;28;20104;-73
2023/11/02 05:11:34;;;;;;;1.95;0.20;;;;;;;6.07;58.00;98549.28;4998411;28;20021;-73
2023/11/02 05:14:00;;;;;;;0.75;0.13;;;;;;;6.11;58.13;98552.53;5001987;28;20458;-75
2023/11/02 05:16:26;;;;;;;0.82;0.40;;;;;;;6.05;58.29;98554.53;4999819;28;20059;-77
2023/11/02 05:18:51;;;;;;;2.15;0.10;;;;;;;6.20;57.70;98539.03;4998513;28;20904;-73
2023/11/02 05:21:17;;;;;;;1.98;0.10;;;;;;;6.29;57.30;98549.72;4997081;28;20040;-72
2023/11/02 05:23:42;;;;;;;1.55;0.30;;;;;;;6.38;57.06;98545.72;4998403;28;20049;-72
2023/11/02 05:26:08;;;;;;;1.15;0.15;;;;;;;6.41;57.28;98542.94;5000423;28;20029;-67
2023/11/02 05:28:33;;;;;;;0.20;0.10;;;;;;;6.45;56.94;98544.44;4999732;28;20538;-69
2023/11/02 05:31:01;;;;;;;0.65;0.30;;;;;;;6.50;56.84;98534.59;4996740;28;20041;-67
2023/11/02 05:33:27;;;;;;;0.75;0.32;;;;;;;6.32;57.13;98538.31;4996809;28;20745;-71
2023/11/02 05:35:52;;;;;;;1.00;0.10;;;;;;;6.35;57.12;98540.75;5001091;28;20049;-70
2023/11/02 05:38:21;;;;;;;1.45;0.35;;;;;;;6.57;56.11;98539.44;5001005;28;20038;-71
2023/11/02 05:40:47;;;;;;;3.90;0.20;;;;;;;6.41;56.89;98522.19;4999801;28;20034;-74
2023/11/02 05:43:15;;;;;;;3.55;0.30;;;;;;;6.49;56.71;98506.16;5004265;28;20046;-73
2023/11/02 05:45:40;;;;;;;3.13;0.20;;;;;;;6.57;56.17;98485.75;5002547;28;20044;-73
2023/11/02 05:48:08;;;;;;;2.33;0.20;;;;;;;6.32;57.01;98468.25;4992706;28;20606;-73
2023/11/02 05:50:35;;;;;;;1.80;0.13;;;;;;;6.74;56.00;98470.91;5000905;28;20030;-73
2023/11/02 05:53:03;;;;;;;0.82;0.25;;;;;;;6.46;56.74;98446.66;4995322;28;20065;-74
2023/11/02 05:55:31;;;;;;;1.10;0.57;;;;;;;6.55;56.56;98434.88;4989566;28;20034;-73
2023/11/02 05:57:57;;;;;;;3.05;0.20;;;;;;;6.29;57.11;98424.34;4986030;28;20119;-73
2023/11/02 06:00:25;;;;;;;0.98;0.43;;;;;;;6.45;56.52;98412.09;4999408;28;20499;-72
2023/11/02 06:02:54;;;;;;;2.53;0.10;;;;;;;6.30;57.13;98400.06;5002081;28;20052;-73
2023/11/02 06:05:19;;;;;;;5.20;0.10;;;;;;;6.33;57.00;98384.34;4998227;28;20059;-69
2023/11/02 06:07:46;;;;;;;3.50;0.30;;;;;;;6.09;57.55;98377.09;4999646;28;20045;-74
2023/11/02 06:10:16;;;;;;;2.28;0.17;;;;;;;6.12;57.97;98378.66;4985230;28;20044;-70
2023/11/02 06:12:42;;;;;;;1.77;0.10;;;;;;;6.25;57.24;98379.56;4999420;28;20444;-70
2023/11/02 06:15:08;;;;;;;2.53;0.45;;;;;;;6.34;57.19;98378.19;4994501;28;20029;-70
2023/11/02 06:17:36;;;;;;;0.20;0.10;;;;;;;6.09;57.73;98356.34;4997545;28;20041;-70
2023/11/02 06:20:02;;;;;;;1.13;0.10;;;;;;;6.11;57.66;98317.34;4993520;28;20425;-70
2023/11/02 06:22:27;;;;;;;0.43;0.10;;;;;;;6.11;57.60;98327.72;4982131;28;20227;-70
2023/11/02 06:24:53;;;;;;;1.85;0.13;;;;;;;6.49;56.85;98320.16;5002716;28;20037;-71
2023/11/02 06:27:20;;;;;;;4.90;0.20;;;;;;;6.42;57.11;98337.06;4996202;28;20145;-71
2023/11/02 06:29:45;;;;;;;2.08;0.40;;;;;;;6.46;57.16;98346.31;4999037;28;20110;-70
2023/11/02 06:32:11;;;;;;;2.78;0.20;;;;;;;6.22;57.80;98340.03;4997996;28;20408;-70
2023/11/02 06:34:38;;;;;;;0.35;0.10;;;;;;;6.35;57.52;98355.69;5002164;28;20037;-70
2023/11/02 06:37:06;;;;;;;1.02;0.20;;;;;;;6.64;56.45;98351.25;4997615;28;20179;-70
2023/11/02 06:39:35;;;;;;;1.75;0.50;;;;;;;6.38;57.39;98345.13;4997530;28;20068;-69
2023/11/02 06:42:01;;;;;;;2.40;0.40;;;;;;;6.19;58.22;98345.41;5005562;28;20034;-71
2023/11/02 06:44:26;;;;;;;4.03;0.95;;;;;;;6.35;57.31;98333.19;5007402;28;20094;-71
2023/11/02 06:46:52;;;;;;;1.17;0.10;;;;;;;6.53;57.01;98322.53;4994721;28;20041;-70
2023/11/02 06:49:17;;;;;;;1.30;0.80;;;;;;;6.68;56.82;98314.59;4998103;28;20038;-70
2023/11/02 06:51:43;;;;;;;1.00;0.20;;;;;;;6.48;57.32;98296.88;4997171;28;20542;-73
2023/11/02 06:54:09;;;;;;;2.63;0.20;;;;;;;6.42;57.45;98284.34;4997418;28;20034;-70
2023/11/02 06:56:36;;;;;;;1.13;0.20;;;;;;;6.59;57.29;98283.22;5000072;28;20120;-73
2023/11/02 06:59:05;;;;;;;1.90;0.10;;;;;;;6.78;56.73;98286.31;4999868;28;20053;-74
2023/11/02 07:01:33;;;;;;;0.57;0.10;;;;;;;6.56;57.21;98253.13;5001654;28;20040;-72
2023/11/02 07:04:00;;;;;;;0.90;0.20;;;;;;;6.58;57.21;98238.28;4997355;28;20060;-73
2023/11/02 07:06:26;;;;;;;0.55;0.10;;;;;;;6.59;56.94;98244.31;4996448;28;20029;-74
2023/11/02 07:08:52;;;;;;;1.25;0.35;;;;;;;6.45;57.82;98238.25;5003249;28;20454;-73
2023/11/02 07:11:17;;;;;;;2.08;0.20;;;;;;;6.63;57.16;98231.03;5005542;28;20694;-73
2023/11/02 07:13:52;;;;;;;1.98;0.20;;;;;;;6.94;56.44;98244.56;5013606;28;20041;-74
2023/11/02 07:16:18;;;;;;;1.38;0.20;;;;;;;6.78;56.93;98238.75;4999863;28;20029;-70
2023/11/02 07:18:44;;;;;;;1.83;0.30;;;;;;;6.78;56.75;98233.56;4999259;28;20100;-69
2023/11/02 07:21:10;;;;;;;2.75;0.30;;;;;;;6.78;56.77;98226.59;4995608;28;20698;-70
2023/11/02 07:23:38;;;;;;;2.28;0.10;;;;;;;7.18;55.82;98190.13;4994809;28;20049;-70
2023/11/02 07:26:04;;;;;;;1.45;0.28;;;;;;;7.38;55.15;98193.97;4996204;28;20049;-69
2023/11/02 07:28:30;;;;;;;0.63;0.63;;;;;;;6.97;56.20;98165.63;4984100;28;20045;-70
2023/11/02 07:30:58;;;;;;;0.57;0.20;;;;;;;6.68;56.88;98181.41;4997614;28;20538;-71
2023/11/02 07:33:23;;;;;;;1.42;0.10;;;;;;;6.91;56.73;98169.50;4994881;28;20042;-71
2023/11/02 07:35:50;;;;;;;0.43;0.30;;;;;;;6.78;56.40;98169.47;5000161;28;20026;-74
2023/11/02 07:38:17;;;;;;;0.65;0.13;;;;;;;6.90;56.67;98149.63;4997571;28;20653;-73
2023/11/02 07:40:42;;;;;;;1.75;0.10;;;;;;;7.23;55.87;98156.88;5003966;28;20025;-72
2023/11/02 07:43:08;;;;;;;4.30;0.28;;;;;;;7.11;56.19;98155.13;4997716;28;20459;-71
2023/11/02 07:45:36;;;;;;;1.23;0.20;;;;;;;6.93;56.62;98174.56;5010122;28;21037;-72
2023/11/02 07:48:02;;;;;;;3.05;0.10;;;;;;;6.82;57.13;98160.56;4997854;28;20058;-72
2023/11/02 07:50:28;;;;;;;0.82;0.20;;;;;;;6.88;57.04;98152.31;5002820;28;20032;-73
2023/11/02 07:52:56;;;;;;;0.77;0.10;;;;;;;7.00;56.77;98153.28;4996808;28;20407;-71
2023/11/02 07:55:21;;;;;;;0.45;0.10;;;;;;;7.03;56.64;98154.81;5000919;28;20045;-71
2023/11/02 07:57:47;;;;;;;2.17;0.10;;;;;;;6.97;56.82;98169.03;5007897;28;20072;-70
2023/11/02 08:00:18;;;;;;;2.50;0.10;;;;;;;7.02;56.56;98154.00;5004561;28;20057;-73
2023/11/02 08:02:44;;;;;;;0.90;0.10;;;;;;;7.07;56.47;98177.06;5001028;28;20057;-70
2023/11/02 08:05:11;;;;;;;2.90;0.13;;;;;;;7.04;56.29;98146.94;4998445;28;20041;-70
2023/11/02 08:07:37;;;;;;;1.58;0.22;;;;;;;7.24;56.07;98131.72;4999515;28;20499;-72
2023/11/02 08:10:03;;;;;;;3.65;0.50;;;;;;;6.80;58.27;98133.03;5000502;28;20045;-71
2023/11/02 08:12:30;;;;;;;5.03;0.22;;;;;;;6.47;59.57;98126.56;5002998;28;20095;-70
2023/11/02 08:14:57;;;;;;;2.15;0.17;;;;;;;6.49;60.04;98125.53;5003525;28;20389;-70
2023/11/02 08:17:23;;;;;;;5.10;0.73;;;;;;;6.38;60.38;98120.25;5006505;28;20064;-72
2023/11/02 08:19:48;;;;;;;0.52;0.20;;;;;;;6.46;60.10;98104.16;5002319;28;20397;-71
2023/11/02 08:22:17;;;;;;;2.72;0.38;;;;;;;6.24;60.58;98108.16;5006373;28;20805;-71
2023/11/02 08:24:45;;;;;;;1.67;0.38;;;;;;;6.39;60.45;98088.16;5007343;28;21042;-71
2023/11/02 08:27:10;;;;;;;4.30;0.35;;;;;;;6.32;60.71;98084.31;4996700;28;20061;-68
2023/11/02 08:29:36;;;;;;;2.13;0.13;;;;;;;6.35;60.28;98081.53;4999555;28;20516;-67
2023/11/02 08:32:01;;;;;;;3.05;0.55;;;;;;;6.62;60.17;98077.97;4998572;28;20374;-70
2023/11/02 08:34:27;;;;;;;0.70;0.20;;;;;;;6.19;60.89;98060.09;5002514;28;20034;-71
2023/11/02 08:36:52;;;;;;;0.73;0.40;;;;;;;6.39;60.10;98064.81;5003589;28;20029;-70
2023/11/02 08:39:17;;;;;;;2.00;0.95;;;;;;;6.42;59.76;98050.81;5007407;28;20029;-70
2023/11/02 08:41:43;;;;;;;5.25;0.20;;;;;;;6.60;59.38;98053.94;4998652;28;20616;-70
2023/11/02 08:44:08;;;;;;;0.95;0.17;;;;;;;6.58;59.29;98040.22;4999941;28;20546;-71
2023/11/02 08:46:35;;;;;;;1.95;0.30;;;;;;;6.71;59.18;98033.25;5003154;28;20133;-70
2023/11/02 08:49:01;;;;;;;2.50;0.10;;;;;;;6.59;59.51;98041.88;4980594;28;20397;-70
2023/11/02 08:51:26;;;;;;;2.30;0.20;;;;;;;6.60;59.90;98039.19;4998534;28;20121;-70
2023/11/02 08:53:54;;;;;;;1.95;0.10;;;;;;;6.55;60.27;98030.03;5004503;28;20282;-69
2023/11/02 08:56:20;;;;;;;1.52;0.20;;;;;;;6.12;61.39;98027.72;4997149;28;20038;-70
2023/11/02 08:58:49;;;;;;;1.55;0.25;;;;;;;6.33;61.03;98015.97;4997573;28;20452;-70
2023/11/02 09:01:20;;;;;;;2.10;0.10;;;;;;;6.62;60.60;98013.09;4998212;28;20041;-70
2023/11/02 09:03:47;;;;;;;2.88;0.20;;;;;;;6.43;61.13;98019.56;4996694;28;20909;-70
2023/11/02 09:06:12;;;;;;;1.90;0.10;;;;;;;6.52;61.31;98014.69;4999634;28;20038;-69
2023/11/02 09:08:38;;;;;;;1.10;0.10;;;;;;;6.49;61.28;98005.34;5000646;28;20653;-69
2023/11/02 09:11:04;;;;;;;3.58;0.20;;;;;;;6.57;61.06;97989.25;4998643;28;20951;-70
2023/11/02 09:13:31;;;;;;;0.22;0.00;;;;;;;6.47;61.12;97986.47;4998166;28;20060;-68
2023/11/02 09:15:57;;;;;;;3.00;0.10;;;;;;;6.51;61.37;97969.75;5002251;28;20038;-69
2023/11/02 09:18:23;;;;;;;2.00;0.13;;;;;;;6.43;61.18;97980.66;4996355;28;20553;-69
2023/11/02 09:20:52;;;;;;;0.68;0.30;;;;;;;6.63;60.77;97981.03;5006495;28;20037;-69
2023/11/02 09:23:17;;;;;;;1.38;0.15;;;;;;;6.52;61.32;97962.78;4997332;28;20053;-69
2023/11/02 09:25:48;;;;;;;0.40;0.10;;;;;;;6.90;60.22;97968.69;4998858;28;20052;-69
2023/11/02 09:28:15;;;;;;;0.60;0.13;;;;;;;6.55;61.16;97954.78;5004178;28;20046;-69
2023/11/02 09:30:46;;;;;;;2.28;0.15;;;;;;;6.83;60.69;97936.34;4992677;28;20064;-69
2023/11/02 09:33:12;;;;;;;2.65;0.20;;;;;;;6.79;60.37;97914.13;4995292;28;20523;-69
2023/11/02 09:35:39;;;;;;;0.63;0.10;;;;;;;6.86;59.74;97910.16;4998377;28;20038;-70
2023/11/02 09:38:05;;;;;;;2.92;0.20;;;;;;;7.35;58.50;97904.91;4997725;28;20041;-69
2023/11/02 09:40:32;;;;;;;1.73;0.25;;;;;;;7.61;59.15;97890.84;4998822;28;20034;-69
2023/11/02 09:43:02;;;;;;;1.25;0.20;;;;;;;7.82;58.27;97898.78;4996943;28;20529;-68
2023/11/02 09:45:28;;;;;;;1.85;0.28;;;;;;;7.73;57.59;97886.47;4996257;28;20033;-68
2023/11/02 09:47:54;;;;;;;0.95;0.10;;;;;;;7.65;58.01;97886.25;4996733;28;20041;-69
2023/11/02 09:50:19;;;;;;;2.85;0.17;;;;;;;7.83;57.26;97868.44;4993757;28;20112;-69
2023/11/02 09:52:48;;;;;;;0.85;0.10;;;;;;;8.66;55.22;97872.38;4997251;28;20057;-69
2023/11/02 09:55:15;;;;;;;1.13;0.10;;;;;;;9.04;53.72;97863.28;4994452;28;20042;-69
2023/11/02 09:57:44;;;;;;;2.38;0.63;;;;;;;9.33;53.14;97843.44;4999618;28;20202;-70
2023/11/02 10:00:10;;;;;;;1.23;0.10;;;;;;;9.14;53.20;97851.97;4996599;28;20581;-69
2023/11/02 10:02:40;;;;;;;1.20;0.10;;;;;;;9.37;51.62;97852.66;4982431;28;20037;-70
2023/11/02 10:05:08;;;;;;;4.18;1.08;;;;;;;9.22;52.33;97840.09;4995271;28;21227;-69
2023/11/02 10:07:35;;;;;;;1.77;0.05;;;;;;;9.02;52.59;97832.13;4996673;28;20037;-70
2023/11/02 10:10:01;;;;;;;0.30;0.10;;;;;;;9.32;51.75;97815.75;5003469;28;20125;-70
2023/11/02 10:12:26;;;;;;;2.17;0.10;;;;;;;9.02;52.22;97802.66;4985483;28;20046;-69
2023/11/02 10:14:52;;;;;;;4.90;0.28;;;;;;;8.62;53.18;97803.25;4998439;28;20048;-71
2023/11/02 10:17:18;;;;;;;1.00;0.38;;;;;;;9.18;52.08;97816.03;4993902;28;20706;-70
2023/11/02 10:19:46;;;;;;;3.55;0.13;;;;;;;9.34;51.84;97811.22;5001989;28;20783;-69
2023/11/02 10:22:11;;;;;;;3.53;0.20;;;;;;;10.47;49.73;97815.50;4992571;28;20171;-71
2023/11/02 10:24:39;;;;;;;1.05;0.10;;;;;;;10.53;48.60;97820.19;4997503;28;20029;-70
2023/11/02 10:27:05;;;;;;;0.28;0.00;;;;;;;10.11;48.76;97793.47;4996745;28;20037;-70
2023/11/02 10:29:34;;;;;;;0.40;0.15;;;;;;;9.98;49.37;97799.72;4999037;28;20022;-69
2023/11/02 10:32:00;;;;;;;1.65;0.10;;;;;;;10.88;48.49;97797.94;4995528;28;20042;-69
2023/11/02 10:34:26;;;;;;;0.38;0.10;;;;;;;11.56;47.06;97810.09;5004690;28;21274;-68
2023/11/02 10:36:53;;;;;;;0.35;0.17;;;;;;;11.30;46.18;97800.22;4995183;28;20061;-68
2023/11/02 10:39:20;;;;;;;0.50;0.20;;;;;;;11.73;45.69;97809.34;4994079;28;20076;-67
2023/11/02 10:42:00;;;;;;;1.35;0.50;;;;;;;11.93;45.39;97798.81;4995186;28;20049;-70
2023/11/02 10:44:31;;;;;;;0.57;0.00;;;;;;;12.20;45.21;97793.59;4994782;28;20076;-68
2023/11/02 10:47:03;;;;;;;0.25;0.05;;;;;;;12.36;44.99;97785.06;4995864;28;20133;-70
2023/11/02 10:49:33;;;;;;;0.52;0.10;;;;;;;11.76;44.41;97779.47;4996587;28;20030;-69
2023/11/02 10:51:59;;;;;;;2.83;0.10;;;;;;;11.32;45.62;97790.47;4993786;28;21588;-69
2023/11/02 10:54:37;;;;;;;0.60;0.10;;;;;;;11.37;46.07;97783.00;4994321;28;20037;-69
2023/11/02 10:57:14;;;;;;;4.43;0.10;;;;;;;12.19;45.36;97765.75;4987198;28;20038;-69
2023/11/02 10:59:41;;;;;;;0.47;0.00;;;;;;;11.91;45.02;97777.19;4999730;28;20038;-69
2023/11/02 11:02:11;;;;;;;2.45;0.10;;;;;;;11.42;45.36;97762.50;4997296;28;20045;-69
2023/11/02 11:04:41;;;;;;;1.48;0.30;;;;;;;12.25;44.96;97756.47;5004783;28;20033;-68
2023/11/02 11:07:11;;;;;;;2.45;0.20;;;;;;;12.38;44.26;97749.09;4977331;28;20144;-69
2023/11/02 11:09:40;;;;;;;2.33;0.28;;;;;;;12.31;44.11;97761.09;4996583;28;20033;-69
2023/11/02 11:12:07;;;;;;;1.38;0.30;;;;;;;11.80;44.04;97763.34;5009109;28;20052;-70
2023/11/02 11:14:37;;;;;;;0.30;0.00;;;;;;;12.64;42.95;97727.38;4987062;28;20051;-69
2023/11/02 11:17:04;;;;;;;3.28;0.10;;;;;;;13.04;42.51;97721.63;4996872;28;20125;-69
2023/11/02 11:19:35;;;;;;;0.82;0.10;;;;;;;13.00;43.10;97715.03;5002968;28;20108;-69
2023/11/02 11:22:06;;;;;;;2.10;0.10;;;;;;;12.83;43.42;97713.31;4992826;28;20079;-69
2023/11/02 11:24:34;;;;;;;0.77;0.10;;;;;;;12.87;43.68;97704.97;4993364;28;20038;-69
2023/11/02 11:27:04;;;;;;;1.75;0.10;;;;;;;13.09;42.99;97714.13;5000415;28;20033;-69
2023/11/02 11:29:41;;;;;;;1.50;0.10;;;;;;;12.20;43.78;97716.81;4993263;28;21460;-69
2023/11/02 11:32:37;;;;;;;1.25;0.85;;;;;;;12.70;43.88;97709.28;4994297;28;20095;-70
2023/11/02 11:35:12;;;;;;;1.02;0.10;;;;;;;11.97;44.57;97717.25;4993204;28;20053;-70
2023/11/02 11:40:23;;;;;;;0.25;0.00;;;;;;;11.80;44.91;97700.56;4993584;28;20040;-70
2023/11/02 11:42:51;;;;;;;0.10;0.00;;;;;;;11.62;45.66;97707.47;4996578;28;20175;-70
2023/11/02 11:45:33;;;;;;;0.52;0.05;;;;;;;11.35;46.13;97696.06;4994660;28;20041;-69
2023/11/02 11:48:24;;;;;;;0.47;0.10;;;;;;;12.00;45.14;97703.88;4997934;28;20193;-70
2023/11/02 11:50:51;;;;;;;0.13;0.08;;;;;;;11.38;46.40;97711.47;4999293;28;20045;-70
2023/11/02 11:53:16;;;;;;;0.28;0.00;;;;;;;11.65;46.13;97691.50;4994297;28;20052;-70
2023/11/02 11:55:51;;;;;;;0.20;0.00;;;;;;;11.80;44.95;97695.31;4995961;28;20041;-70
2023/11/02 11:58:35;;;;;;;4.03;0.10;;;;;;;11.18;46.50;97695.00;4988220;28;20038;-70